sensor_id;sensor_type;location;lat;lon;timestamp;pressure;altitude;pressure_sealevel;temperature;humidity
13209;BME280;6669;42.678;23.332;2023-02-28T00:01:26;94955.19;;;6.36;100.00
13209;BME280;6669;42.678;23.332;2023-02-28T00:03:54;94965.94;;;6.12;100.00
13209;BME280;6669;42.678;23.332;2023-02-28T00:06:24;94967.78;;;5.91;100.00
13209;BME280;6669;42.678;23.332;2023-02-28T00:08:52;94963.22;;;6.14;100.00
13209;BME280;6669;42.678;23.332;2023-02-28T00:11:20;94967.03;;;6.10;100.00
13209;BME280;6669;42.678;23.332;2023-02-28T00:13:48;94954.78;;;6.21;100.00
13209;BME280;6669;42.678;23.332;2023-02-28T00:16:17;94961.03;;;6.29;100.00
13209;BME280;6669;42.678;23.332;2023-02-28T00:18:47;94973.25;;;6.27;100.00
13209;BME280;6669;42.678;23.332;2023-02-28T00:21:16;94964.53;;;6.37;100.00
13209;BME280;6669;42.678;23.332;2023-02-28T00:23:46;94974.75;;;6.39;100.00
13209;BME280;6669;42.678;23.332;2023-02-28T00:26:14;94977.72;;;6.44;100.00
13209;BME280;6669;42.678;23.332;2023-02-28T00:28:42;94984.25;;;6.48;100.00
13209;BME280;6669;42.678;23.332;2023-02-28T00:31:10;94991.03;;;6.49;100.00
13209;BME280;6669;42.678;23.332;2023-02-28T00:33:38;94981.91;;;6.55;100.00
13209;BME280;6669;42.678;23.332;2023-02-28T00:36:10;94979.47;;;6.53;100.00
13209;BME280;6669;42.678;23.332;2023-02-28T00:38:40;94985.34;;;6.56;100.00
13209;BME280;6669;42.678;23.332;2023-02-28T00:41:08;94991.69;;;6.61;100.00
13209;BME280;6669;42.678;23.332;2023-02-28T00:43:37;94979.72;;;6.60;100.00
13209;BME280;6669;42.678;23.332;2023-02-28T00:46:06;94971.03;;;6.71;100.00
13209;BME280;6669;42.678;23.332;2023-02-28T00:48:34;94969.41;;;6.70;100.00
13209;BME280;6669;42.678;23.332;2023-02-28T00:51:02;94970.34;;;6.59;100.00
13209;BME280;6669;42.678;23.332;2023-02-28T00:53:32;94970.78;;;6.54;100.00
13209;BME280;6669;42.678;23.332;2023-02-28T00:56:00;94968.84;;;6.57;100.00
13209;BME280;6669;42.678;23.332;2023-02-28T00:58:35;94972.41;;;6.46;100.00
13209;BME280;6669;42.678;23.332;2023-02-28T01:01:05;94974.75;;;6.39;100.00
13209;BME280;6669;42.678;23.332;2023-02-28T01:03:34;94963.59;;;6.38;100.00
13209;BME280;6669;42.678;23.332;2023-02-28T01:06:02;94996.50;;;6.27;100.00
13209;BME280;6669;42.678;23.332;2023-02-28T01:08:31;94975.16;;;6.25;100.00
13209;BME280;6669;42.678;23.332;2023-02-28T01:11:07;94992.94;;;6.18;100.00
13209;BME280;6669;42.678;23.332;2023-02-28T01:13:35;94971.75;;;6.14;100.00
13209;BME280;6669;42.678;23.332;2023-02-28T01:16:04;94957.91;;;6.15;100.00
13209;BME280;6669;42.678;23.332;2023-02-28T01:18:32;94972.03;;;6.11;100.00
13209;BME280;6669;42.678;23.332;2023-02-28T01:21:03;94965.47;;;5.97;100.00
13209;BME280;6669;42.678;23.332;2023-02-28T01:23:32;94974.47;;;6.03;100.00
13209;BME280;6669;42.678;23.332;2023-02-28T01:26:04;94965.91;;;6.02;100.00
13209;BME280;6669;42.678;23.332;2023-02-28T01:28:32;94964.44;;;6.00;100.00
13209;BME280;6669;42.678;23.332;2023-02-28T01:31:01;94963.84;;;5.96;100.00
13209;BME280;6669;42.678;23.332;2023-02-28T01:33:29;94968.19;;;5.96;100.00
13209;BME280;6669;42.678;23.332;2023-02-28T01:35:58;94963.56;;;5.89;100.00
13209;BME280;6669;42.678;23.332;2023-02-28T01:38:26;94963.56;;;5.89;100.00
13209;BME280;6669;42.678;23.332;2023-02-28T01:40:56;94969.16;;;5.95;100.00
13209;BME280;6669;42.678;23.332;2023-02-28T01:43:26;94969.53;;;5.90;100.00
13209;BME280;6669;42.678;23.332;2023-02-28T01:45:55;94969.81;;;5.87;100.00
13209;BME280;6669;42.678;23.332;2023-02-28T01:48:27;94974.97;;;5.87;100.00
13209;BME280;6669;42.678;23.332;2023-02-28T01:50:59;94976.72;;;5.86;100.00
13209;BME280;6669;42.678;23.332;2023-02-28T01:53:32;94978.91;;;5.91;100.00
13209;BME280;6669;42.678;23.332;2023-02-28T01:56:04;94966.00;;;5.91;100.00
13209;BME280;6669;42.678;23.332;2023-02-28T01:58:34;94977.13;;;5.92;100.00
13209;BME280;6669;42.678;23.332;2023-02-28T02:01:04;94972.25;;;5.88;100.00
13209;BME280;6669;42.678;23.332;2023-02-28T02:03:32;94978.63;;;5.94;100.00
13209;BME280;6669;42.678;23.332;2023-02-28T02:06:00;94979.91;;;6.00;100.00
13209;BME280;6669;42.678;23.332;2023-02-28T02:08:29;94981.81;;;6.08;100.00
13209;BME280;6669;42.678;23.332;2023-02-28T02:10:59;94973.66;;;6.02;100.00
13209;BME280;6669;42.678;23.332;2023-02-28T02:13:47;94968.75;;;6.09;100.00
13209;BME280;6669;42.678;23.332;2023-02-28T02:16:34;94965.78;;;6.04;100.00
13209;BME280;6669;42.678;23.332;2023-02-28T02:19:17;94960.63;;;6.04;100.00
13209;BME280;6669;42.678;23.332;2023-02-28T02:22:18;94972.72;;;6.03;100.00
13209;BME280;6669;42.678;23.332;2023-02-28T02:28:22;94961.41;;;5.95;100.00
13209;BME280;6669;42.678;23.332;2023-02-28T02:31:06;94955.53;;;5.73;100.00
13209;BME280;6669;42.678;23.332;2023-02-28T02:37:11;94971.19;;;5.91;100.00
13209;BME280;6669;42.678;23.332;2023-02-28T02:39:48;94963.41;;;5.81;100.00
13209;BME280;6669;42.678;23.332;2023-02-28T02:42:22;94971.28;;;5.80;100.00
13209;BME280;6669;42.678;23.332;2023-02-28T02:44:58;94973.59;;;5.83;100.00
13209;BME280;6669;42.678;23.332;2023-02-28T02:47:30;94976.88;;;5.85;100.00
13209;BME280;6669;42.678;23.332;2023-02-28T02:50:03;94980.13;;;5.97;100.00
13209;BME280;6669;42.678;23.332;2023-02-28T02:52:38;94973.38;;;5.96;100.00
13209;BME280;6669;42.678;23.332;2023-02-28T02:55:09;94983.13;;;5.92;100.00
13209;BME280;6669;42.678;23.332;2023-02-28T02:57:43;94979.69;;;5.72;100.00
13209;BME280;6669;42.678;23.332;2023-02-28T03:00:14;94989.34;;;5.80;100.00
13209;BME280;6669;42.678;23.332;2023-02-28T03:02:44;94985.00;;;5.80;100.00
13209;BME280;6669;42.678;23.332;2023-02-28T03:05:18;94998.31;;;5.85;100.00
13209;BME280;6669;42.678;23.332;2023-02-28T03:07:48;95003.34;;;5.87;100.00
13209;BME280;6669;42.678;23.332;2023-02-28T03:10:33;94995.09;;;5.93;100.00
13209;BME280;6669;42.678;23.332;2023-02-28T03:16:01;95014.13;;;6.02;100.00
13209;BME280;6669;42.678;23.332;2023-02-28T03:18:39;95019.56;;;5.99;100.00
13209;BME280;6669;42.678;23.332;2023-02-28T03:21:14;95008.72;;;6.05;100.00
13209;BME280;6669;42.678;23.332;2023-02-28T03:23:53;95012.50;;;6.11;100.00
13209;BME280;6669;42.678;23.332;2023-02-28T03:26:26;95020.66;;;6.16;100.00
13209;BME280;6669;42.678;23.332;2023-02-28T03:29:02;95021.88;;;6.12;100.00
13209;BME280;6669;42.678;23.332;2023-02-28T03:31:35;95023.91;;;6.08;100.00
13209;BME280;6669;42.678;23.332;2023-02-28T03:34:08;95035.34;;;6.15;100.00
13209;BME280;6669;42.678;23.332;2023-02-28T03:36:40;95032.06;;;6.13;100.00
13209;BME280;6669;42.678;23.332;2023-02-28T03:39:14;95027.03;;;6.02;100.00
13209;BME280;6669;42.678;23.332;2023-02-28T03:41:48;95026.09;;;6.13;100.00
13209;BME280;6669;42.678;23.332;2023-02-28T03:44:22;95025.97;;;6.14;100.00
13209;BME280;6669;42.678;23.332;2023-02-28T03:46:55;95032.34;;;6.10;100.00
13209;BME280;6669;42.678;23.332;2023-02-28T03:49:27;95039.91;;;6.02;100.00
13209;BME280;6669;42.678;23.332;2023-02-28T03:51:59;95036.00;;;6.08;100.00
13209;BME280;6669;42.678;23.332;2023-02-28T03:54:32;95042.66;;;6.10;100.00
13209;BME280;6669;42.678;23.332;2023-02-28T03:57:05;95039.94;;;6.12;100.00
13209;BME280;6669;42.678;23.332;2023-02-28T03:59:37;95040.50;;;6.15;100.00
13209;BME280;6669;42.678;23.332;2023-02-28T04:02:07;95042.53;;;6.12;100.00
13209;BME280;6669;42.678;23.332;2023-02-28T04:04:35;95038.06;;;6.14;100.00
13209;BME280;6669;42.678;23.332;2023-02-28T04:07:05;95044.97;;;6.13;100.00
13209;BME280;6669;42.678;23.332;2023-02-28T04:09:35;95033.69;;;6.14;100.00
13209;BME280;6669;42.678;23.332;2023-02-28T04:12:03;95038.88;;;6.14;100.00
13209;BME280;6669;42.678;23.332;2023-02-28T04:14:31;95046.59;;;6.14;100.00
13209;BME280;6669;42.678;23.332;2023-02-28T04:16:59;95036.16;;;6.06;100.00
13209;BME280;6669;42.678;23.332;2023-02-28T04:19:27;95027.72;;;6.14;100.00
13209;BME280;6669;42.678;23.332;2023-02-28T04:21:55;95029.06;;;6.08;100.00
13209;BME280;6669;42.678;23.332;2023-02-28T04:24:24;95040.78;;;6.12;100.00
13209;BME280;6669;42.678;23.332;2023-02-28T04:26:54;95040.47;;;6.05;100.00
13209;BME280;6669;42.678;23.332;2023-02-28T04:29:25;95036.56;;;6.11;100.00
13209;BME280;6669;42.678;23.332;2023-02-28T04:31:55;95039.16;;;6.11;100.00
13209;BME280;6669;42.678;23.332;2023-02-28T04:34:25;95041.84;;;6.19;100.00
13209;BME280;6669;42.678;23.332;2023-02-28T04:36:54;95037.78;;;6.17;100.00
13209;BME280;6669;42.678;23.332;2023-02-28T04:39:38;95046.19;;;6.09;100.00
13209;BME280;6669;42.678;23.332;2023-02-28T04:42:08;95044.72;;;6.16;100.00
13209;BME280;6669;42.678;23.332;2023-02-28T04:44:36;95051.31;;;5.99;100.00
13209;BME280;6669;42.678;23.332;2023-02-28T04:47:04;95052.94;;;5.91;100.00
13209;BME280;6669;42.678;23.332;2023-02-28T04:49:31;95062.69;;;5.97;100.00
13209;BME280;6669;42.678;23.332;2023-02-28T04:51:59;95062.63;;;5.98;100.00
13209;BME280;6669;42.678;23.332;2023-02-28T04:54:28;95062.84;;;5.95;100.00
13209;BME280;6669;42.678;23.332;2023-02-28T04:56:56;95065.56;;;5.94;100.00
13209;BME280;6669;42.678;23.332;2023-02-28T04:59:26;95067.44;;;5.92;100.00
13209;BME280;6669;42.678;23.332;2023-02-28T05:01:53;95062.22;;;6.03;100.00
13209;BME280;6669;42.678;23.332;2023-02-28T05:04:22;95069.16;;;6.02;100.00
13209;BME280;6669;42.678;23.332;2023-02-28T05:06:49;95067.19;;;5.95;100.00
13209;BME280;6669;42.678;23.332;2023-02-28T05:09:17;95060.38;;;5.84;100.00
13209;BME280;6669;42.678;23.332;2023-02-28T05:11:45;95063.09;;;5.82;100.00
13209;BME280;6669;42.678;23.332;2023-02-28T05:14:13;95060.78;;;5.79;100.00
13209;BME280;6669;42.678;23.332;2023-02-28T05:16:43;95075.84;;;5.74;100.00
13209;BME280;6669;42.678;23.332;2023-02-28T05:19:11;95073.72;;;5.58;100.00
13209;BME280;6669;42.678;23.332;2023-02-28T05:21:40;95074.88;;;5.75;100.00
13209;BME280;6669;42.678;23.332;2023-02-28T05:24:10;95078.13;;;5.77;100.00
13209;BME280;6669;42.678;23.332;2023-02-28T05:26:40;95076.22;;;5.69;100.00
13209;BME280;6669;42.678;23.332;2023-02-28T05:29:08;95083.31;;;5.77;100.00
13209;BME280;6669;42.678;23.332;2023-02-28T05:31:37;95082.91;;;5.82;100.00
13209;BME280;6669;42.678;23.332;2023-02-28T05:34:06;95098.81;;;5.87;100.00
13209;BME280;6669;42.678;23.332;2023-02-28T05:36:37;95091.38;;;5.94;100.00
13209;BME280;6669;42.678;23.332;2023-02-28T05:39:06;95091.66;;;6.00;100.00
13209;BME280;6669;42.678;23.332;2023-02-28T05:41:40;95095.75;;;6.03;100.00
13209;BME280;6669;42.678;23.332;2023-02-28T05:44:08;95091.53;;;6.02;100.00
13209;BME280;6669;42.678;23.332;2023-02-28T05:46:36;95090.13;;;5.98;100.00
13209;BME280;6669;42.678;23.332;2023-02-28T05:49:06;95098.16;;;5.95;100.00
13209;BME280;6669;42.678;23.332;2023-02-28T05:51:34;95103.25;;;6.06;100.00
13209;BME280;6669;42.678;23.332;2023-02-28T05:54:06;95100.91;;;6.03;100.00
13209;BME280;6669;42.678;23.332;2023-02-28T05:56:34;95101.84;;;6.02;100.00
13209;BME280;6669;42.678;23.332;2023-02-28T05:59:04;95111.94;;;6.05;100.00
13209;BME280;6669;42.678;23.332;2023-02-28T06:01:34;95109.06;;;6.08;100.00
13209;BME280;6669;42.678;23.332;2023-02-28T06:04:04;95103.34;;;6.04;100.00
13209;BME280;6669;42.678;23.332;2023-02-28T06:06:34;95103.25;;;6.16;100.00
13209;BME280;6669;42.678;23.332;2023-02-28T06:09:03;95101.50;;;6.16;100.00
13209;BME280;6669;42.678;23.332;2023-02-28T06:11:32;95097.41;;;6.24;100.00
13209;BME280;6669;42.678;23.332;2023-02-28T06:14:00;95104.91;;;6.27;100.00
13209;BME280;6669;42.678;23.332;2023-02-28T06:16:31;95104.09;;;6.36;100.00
13209;BME280;6669;42.678;23.332;2023-02-28T06:19:01;95094.06;;;6.33;100.00
13209;BME280;6669;42.678;23.332;2023-02-28T06:21:30;95105.31;;;6.32;100.00
13209;BME280;6669;42.678;23.332;2023-02-28T06:24:00;95101.94;;;6.31;100.00
13209;BME280;6669;42.678;23.332;2023-02-28T06:26:28;95099.75;;;6.46;100.00
13209;BME280;6669;42.678;23.332;2023-02-28T06:28:56;95093.50;;;6.49;100.00
13209;BME280;6669;42.678;23.332;2023-02-28T06:31:24;95092.84;;;6.57;100.00
13209;BME280;6669;42.678;23.332;2023-02-28T06:33:53;95111.22;;;6.63;100.00
13209;BME280;6669;42.678;23.332;2023-02-28T06:36:21;95116.25;;;6.65;100.00
13209;BME280;6669;42.678;23.332;2023-02-28T06:38:49;95118.94;;;6.73;100.00
13209;BME280;6669;42.678;23.332;2023-02-28T06:41:24;95120.59;;;6.74;100.00
13209;BME280;6669;42.678;23.332;2023-02-28T06:43:53;95125.34;;;6.69;100.00
13209;BME280;6669;42.678;23.332;2023-02-28T06:46:21;95118.56;;;6.78;100.00
13209;BME280;6669;42.678;23.332;2023-02-28T06:48:49;95110.25;;;6.64;100.00
13209;BME280;6669;42.678;23.332;2023-02-28T06:51:19;95119.06;;;6.62;100.00
13209;BME280;6669;42.678;23.332;2023-02-28T06:53:49;95127.94;;;6.69;100.00
13209;BME280;6669;42.678;23.332;2023-02-28T06:56:17;95121.97;;;6.68;100.00
13209;BME280;6669;42.678;23.332;2023-02-28T06:58:49;95134.34;;;6.75;100.00
13209;BME280;6669;42.678;23.332;2023-02-28T07:01:19;95130.91;;;6.74;100.00
13209;BME280;6669;42.678;23.332;2023-02-28T07:03:49;95131.44;;;6.68;100.00
13209;BME280;6669;42.678;23.332;2023-02-28T07:06:19;95138.66;;;6.64;100.00
13209;BME280;6669;42.678;23.332;2023-02-28T07:08:50;95130.91;;;6.64;100.00
13209;BME280;6669;42.678;23.332;2023-02-28T07:11:20;95117.56;;;6.59;100.00
13209;BME280;6669;42.678;23.332;2023-02-28T07:13:50;95126.56;;;6.65;100.00
13209;BME280;6669;42.678;23.332;2023-02-28T07:16:18;95127.81;;;6.61;100.00
13209;BME280;6669;42.678;23.332;2023-02-28T07:18:46;95130.09;;;6.64;100.00
13209;BME280;6669;42.678;23.332;2023-02-28T07:21:15;95128.47;;;6.63;100.00
13209;BME280;6669;42.678;23.332;2023-02-28T07:23:43;95133.63;;;6.63;100.00
13209;BME280;6669;42.678;23.332;2023-02-28T07:26:14;95135.41;;;6.62;100.00
13209;BME280;6669;42.678;23.332;2023-02-28T07:28:45;95134.31;;;6.65;100.00
13209;BME280;6669;42.678;23.332;2023-02-28T07:31:15;95136.06;;;6.64;100.00
13209;BME280;6669;42.678;23.332;2023-02-28T07:33:44;95132.56;;;6.75;100.00
13209;BME280;6669;42.678;23.332;2023-02-28T07:36:14;95138.00;;;6.82;100.00
13209;BME280;6669;42.678;23.332;2023-02-28T07:38:47;95127.50;;;6.83;100.00
13209;BME280;6669;42.678;23.332;2023-02-28T07:41:16;95134.06;;;6.87;100.00
13209;BME280;6669;42.678;23.332;2023-02-28T07:43:46;95131.59;;;7.15;100.00
13209;BME280;6669;42.678;23.332;2023-02-28T07:46:16;95142.06;;;7.14;100.00
13209;BME280;6669;42.678;23.332;2023-02-28T07:48:49;95133.19;;;7.16;100.00
13209;BME280;6669;42.678;23.332;2023-02-28T07:51:17;95138.94;;;7.10;100.00
13209;BME280;6669;42.678;23.332;2023-02-28T07:53:45;95133.09;;;7.18;100.00
13209;BME280;6669;42.678;23.332;2023-02-28T07:56:13;95128.97;;;7.35;100.00
13209;BME280;6669;42.678;23.332;2023-02-28T07:58:41;95127.75;;;7.29;100.00
13209;BME280;6669;42.678;23.332;2023-02-28T08:01:10;95116.31;;;7.32;100.00
13209;BME280;6669;42.678;23.332;2023-02-28T08:03:40;95121.03;;;7.56;100.00
13209;BME280;6669;42.678;23.332;2023-02-28T08:06:15;95126.84;;;7.68;100.00
13209;BME280;6669;42.678;23.332;2023-02-28T08:08:44;95126.94;;;7.76;100.00
13209;BME280;6669;42.678;23.332;2023-02-28T08:11:12;95130.44;;;7.85;100.00
13209;BME280;6669;42.678;23.332;2023-02-28T08:13:40;95127.44;;;7.90;100.00
13209;BME280;6669;42.678;23.332;2023-02-28T08:16:09;95124.09;;;8.07;100.00
13209;BME280;6669;42.678;23.332;2023-02-28T08:18:37;95128.44;;;8.34;100.00
13209;BME280;6669;42.678;23.332;2023-02-28T08:21:10;95131.13;;;8.43;100.00
13209;BME280;6669;42.678;23.332;2023-02-28T08:23:38;95126.59;;;8.45;100.00
13209;BME280;6669;42.678;23.332;2023-02-28T08:26:06;95137.88;;;8.54;100.00
13209;BME280;6669;42.678;23.332;2023-02-28T08:28:34;95134.28;;;8.64;100.00
13209;BME280;6669;42.678;23.332;2023-02-28T08:31:08;95132.81;;;8.80;100.00
13209;BME280;6669;42.678;23.332;2023-02-28T08:33:36;95138.56;;;8.74;100.00
13209;BME280;6669;42.678;23.332;2023-02-28T08:36:06;95134.97;;;8.85;100.00
13209;BME280;6669;42.678;23.332;2023-02-28T08:38:36;95135.69;;;8.77;100.00
13209;BME280;6669;42.678;23.332;2023-02-28T08:41:08;95138.66;;;8.82;100.00
13209;BME280;6669;42.678;23.332;2023-02-28T08:43:37;95141.47;;;8.89;100.00
13209;BME280;6669;42.678;23.332;2023-02-28T08:46:05;95139.53;;;8.91;100.00
13209;BME280;6669;42.678;23.332;2023-02-28T08:48:34;95134.44;;;8.99;100.00
13209;BME280;6669;42.678;23.332;2023-02-28T08:51:06;95122.38;;;8.90;100.00
13209;BME280;6669;42.678;23.332;2023-02-28T08:53:38;95130.72;;;9.02;100.00
13209;BME280;6669;42.678;23.332;2023-02-28T08:56:08;95131.25;;;9.05;100.00
13209;BME280;6669;42.678;23.332;2023-02-28T08:58:36;95137.97;;;8.98;100.00
13209;BME280;6669;42.678;23.332;2023-02-28T09:01:09;95136.66;;;8.94;100.00
13209;BME280;6669;42.678;23.332;2023-02-28T09:03:37;95134.44;;;8.99;100.00
13209;BME280;6669;42.678;23.332;2023-02-28T09:06:05;95137.03;;;8.99;100.00
13209;BME280;6669;42.678;23.332;2023-02-28T09:08:33;95136.72;;;9.02;100.00
13209;BME280;6669;42.678;23.332;2023-02-28T09:11:03;95135.22;;;9.18;100.00
13209;BME280;6669;42.678;23.332;2023-02-28T09:13:32;95121.16;;;9.02;100.00
13209;BME280;6669;42.678;23.332;2023-02-28T09:16:02;95122.88;;;9.11;100.00
13209;BME280;6669;42.678;23.332;2023-02-28T09:18:30;95128.03;;;9.29;100.00
13209;BME280;6669;42.678;23.332;2023-02-28T09:20:58;95130.63;;;9.29;100.00
13209;BME280;6669;42.678;23.332;2023-02-28T09:23:26;95133.41;;;9.36;100.00
13209;BME280;6669;42.678;23.332;2023-02-28T09:25:54;95140.63;;;9.24;100.00
13209;BME280;6669;42.678;23.332;2023-02-28T09:28:24;95133.50;;;9.26;100.00
13209;BME280;6669;42.678;23.332;2023-02-28T09:30:53;95130.25;;;9.24;100.00
13209;BME280;6669;42.678;23.332;2023-02-28T09:33:22;95129.75;;;9.47;100.00
13209;BME280;6669;42.678;23.332;2023-02-28T09:35:51;95132.50;;;9.45;100.00
13209;BME280;6669;42.678;23.332;2023-02-28T09:38:24;95127.97;;;9.47;100.00
13209;BME280;6669;42.678;23.332;2023-02-28T09:40:55;95127.72;;;9.59;100.00
13209;BME280;6669;42.678;23.332;2023-02-28T09:43:28;95124.03;;;9.70;100.00
13209;BME280;6669;42.678;23.332;2023-02-28T09:46:02;95127.84;;;9.84;100.00
13209;BME280;6669;42.678;23.332;2023-02-28T09:48:35;95124.94;;;9.87;100.00
13209;BME280;6669;42.678;23.332;2023-02-28T09:51:14;95120.06;;;9.84;100.00
13209;BME280;6669;42.678;23.332;2023-02-28T09:53:43;95122.88;;;9.98;100.00
13209;BME280;6669;42.678;23.332;2023-02-28T09:56:22;95117.63;;;10.25;100.00
13209;BME280;6669;42.678;23.332;2023-02-28T09:58:58;95114.78;;;10.36;100.00
13209;BME280;6669;42.678;23.332;2023-02-28T10:01:32;95118.44;;;10.25;100.00
13209;BME280;6669;42.678;23.332;2023-02-28T10:04:08;95110.59;;;10.52;100.00
13209;BME280;6669;42.678;23.332;2023-02-28T10:06:45;95110.91;;;10.49;100.00
13209;BME280;6669;42.678;23.332;2023-02-28T10:09:16;95105.84;;;10.47;100.00
13209;BME280;6669;42.678;23.332;2023-02-28T10:11:47;95108.53;;;10.72;100.00
13209;BME280;6669;42.678;23.332;2023-02-28T10:14:24;95110.13;;;10.73;100.00
13209;BME280;6669;42.678;23.332;2023-02-28T10:16:56;95105.41;;;10.76;100.00
13209;BME280;6669;42.678;23.332;2023-02-28T10:19:29;95102.19;;;10.91;100.00
13209;BME280;6669;42.678;23.332;2023-02-28T10:22:01;95101.88;;;10.94;100.00
13209;BME280;6669;42.678;23.332;2023-02-28T10:24:35;95105.63;;;11.00;100.00
13209;BME280;6669;42.678;23.332;2023-02-28T10:27:13;95100.75;;;11.05;100.00
13209;BME280;6669;42.678;23.332;2023-02-28T10:29:44;95100.75;;;11.05;100.00
13209;BME280;6669;42.678;23.332;2023-02-28T10:32:14;95100.22;;;10.93;100.00
13209;BME280;6669;42.678;23.332;2023-02-28T10:34:43;95081.22;;;10.76;100.00
13209;BME280;6669;42.678;23.332;2023-02-28T10:37:13;95086.09;;;10.95;100.00
13209;BME280;6669;42.678;23.332;2023-02-28T10:39:43;95080.03;;;11.36;100.00
13209;BME280;6669;42.678;23.332;2023-02-28T10:42:22;95081.63;;;11.62;100.00
13209;BME280;6669;42.678;23.332;2023-02-28T10:45:13;95075.19;;;11.89;100.00
13209;BME280;6669;42.678;23.332;2023-02-28T10:47:53;95074.56;;;12.27;100.00
13209;BME280;6669;42.678;23.332;2023-02-28T10:50:29;95076.91;;;12.91;100.00
13209;BME280;6669;42.678;23.332;2023-02-28T10:53:10;95074.28;;;13.38;100.00
13209;BME280;6669;42.678;23.332;2023-02-28T10:55:43;95056.81;;;13.53;100.00
13209;BME280;6669;42.678;23.332;2023-02-28T10:58:30;95067.44;;;13.97;100.00
13209;BME280;6669;42.678;23.332;2023-02-28T11:00:59;95060.22;;;14.35;100.00
13209;BME280;6669;42.678;23.332;2023-02-28T11:03:32;95061.88;;;14.58;100.00
13209;BME280;6669;42.678;23.332;2023-02-28T11:06:05;95050.75;;;14.71;100.00
13209;BME280;6669;42.678;23.332;2023-02-28T11:08:34;95046.53;;;14.70;100.00
13209;BME280;6669;42.678;23.332;2023-02-28T11:11:11;95045.28;;;14.66;100.00
13209;BME280;6669;42.678;23.332;2023-02-28T11:13:39;95043.97;;;14.98;100.00
13209;BME280;6669;42.678;23.332;2023-02-28T11:16:11;95039.88;;;15.17;100.00
13209;BME280;6669;42.678;23.332;2023-02-28T11:18:42;95041.31;;;15.20;100.00
13209;BME280;6669;42.678;23.332;2023-02-28T11:21:18;95034.88;;;15.23;100.00
13209;BME280;6669;42.678;23.332;2023-02-28T11:23:49;95035.53;;;15.03;100.00
13209;BME280;6669;42.678;23.332;2023-02-28T11:26:37;95033.34;;;14.42;100.00
13209;BME280;6669;42.678;23.332;2023-02-28T11:29:11;95034.34;;;14.62;100.00
13209;BME280;6669;42.678;23.332;2023-02-28T11:31:41;95035.00;;;14.86;100.00
13209;BME280;6669;42.678;23.332;2023-02-28T11:34:25;95028.97;;;15.14;100.00
13209;BME280;6669;42.678;23.332;2023-02-28T11:36:56;95031.50;;;14.79;100.00
13209;BME280;6669;42.678;23.332;2023-02-28T11:39:25;95027.41;;;14.69;100.00
13209;BME280;6669;42.678;23.332;2023-02-28T11:42:05;95026.19;;;14.50;100.00
13209;BME280;6669;42.678;23.332;2023-02-28T11:44:47;95032.56;;;14.26;100.00
13209;BME280;6669;42.678;23.332;2023-02-28T11:47:30;95029.22;;;14.32;100.00
13209;BME280;6669;42.678;23.332;2023-02-28T11:52:54;95018.38;;;14.35;100.00
13209;BME280;6669;42.678;23.332;2023-02-28T11:55:26;95026.81;;;14.67;100.00
13209;BME280;6669;42.678;23.332;2023-02-28T11:58:27;95014.25;;;14.84;100.00
13209;BME280;6669;42.678;23.332;2023-02-28T12:01:09;95016.00;;;15.06;100.00
13209;BME280;6669;42.678;23.332;2023-02-28T12:03:45;95011.19;;;14.81;100.00
13209;BME280;6669;42.678;23.332;2023-02-28T12:06:21;95018.31;;;14.87;100.00
13209;BME280;6669;42.678;23.332;2023-02-28T12:09:04;95015.09;;;15.13;100.00
13209;BME280;6669;42.678;23.332;2023-02-28T12:11:48;95009.25;;;15.18;100.00
13209;BME280;6669;42.678;23.332;2023-02-28T12:14:37;95004.91;;;14.97;100.00
13209;BME280;6669;42.678;23.332;2023-02-28T12:17:24;95022.53;;;14.88;100.00
13209;BME280;6669;42.678;23.332;2023-02-28T12:20:02;95011.94;;;14.75;100.00
13209;BME280;6669;42.678;23.332;2023-02-28T12:22:39;95010.47;;;14.65;100.00
13209;BME280;6669;42.678;23.332;2023-02-28T12:28:15;95006.88;;;14.51;100.00
13209;BME280;6669;42.678;23.332;2023-02-28T12:30:50;95010.28;;;14.30;100.00
13209;BME280;6669;42.678;23.332;2023-02-28T12:33:23;95006.88;;;14.30;100.00
13209;BME280;6669;42.678;23.332;2023-02-28T12:35:58;95017.66;;;14.42;100.00
13209;BME280;6669;42.678;23.332;2023-02-28T12:38:29;95019.72;;;14.10;100.00
13209;BME280;6669;42.678;23.332;2023-02-28T12:41:02;95014.22;;;14.19;100.00
13209;BME280;6669;42.678;23.332;2023-02-28T12:43:33;95009.91;;;14.12;100.00
13209;BME280;6669;42.678;23.332;2023-02-28T12:46:08;95014.47;;;13.73;100.00
13209;BME280;6669;42.678;23.332;2023-02-28T12:48:41;95008.34;;;13.51;100.00
13209;BME280;6669;42.678;23.332;2023-02-28T12:51:15;95007.09;;;13.47;100.00
13209;BME280;6669;42.678;23.332;2023-02-28T12:53:53;95006.09;;;13.48;100.00
13209;BME280;6669;42.678;23.332;2023-02-28T12:56:35;95005.81;;;13.43;100.00
13209;BME280;6669;42.678;23.332;2023-02-28T12:59:08;94995.81;;;13.31;100.00
13209;BME280;6669;42.678;23.332;2023-02-28T13:02:06;95004.91;;;13.35;100.00
13209;BME280;6669;42.678;23.332;2023-02-28T13:04:55;95006.19;;;13.54;100.00
13209;BME280;6669;42.678;23.332;2023-02-28T13:08:01;95009.34;;;13.50;100.00
13209;BME280;6669;42.678;23.332;2023-02-28T13:10:39;95001.25;;;13.45;100.00
13209;BME280;6669;42.678;23.332;2023-02-28T13:13:15;95012.13;;;13.48;100.00
13209;BME280;6669;42.678;23.332;2023-02-28T13:15:58;95000.66;;;13.34;100.00
13209;BME280;6669;42.678;23.332;2023-02-28T13:18:33;95005.06;;;13.19;100.00
13209;BME280;6669;42.678;23.332;2023-02-28T13:21:04;94998.28;;;13.09;100.00
13209;BME280;6669;42.678;23.332;2023-02-28T13:23:41;94993.59;;;12.90;100.00
13209;BME280;6669;42.678;23.332;2023-02-28T13:26:24;94988.41;;;12.67;100.00
13209;BME280;6669;42.678;23.332;2023-02-28T13:29:28;94998.16;;;12.50;100.00
13209;BME280;6669;42.678;23.332;2023-02-28T13:32:27;94986.31;;;12.62;100.00
13209;BME280;6669;42.678;23.332;2023-02-28T13:38:23;94996.66;;;12.55;100.00
13209;BME280;6669;42.678;23.332;2023-02-28T13:40:51;94987.56;;;12.51;100.00
13209;BME280;6669;42.678;23.332;2023-02-28T13:43:19;94984.09;;;12.59;100.00